Frecheirinha, Brazil
Current Conditions -  °F | °C
As of 5:00 PM on Sunday 23 Nov 2014 (Local Time) from SBPB Reporting Station
Clear Clear  
Wind Chill: 86°   Ceiling: Unl
Heat Index: 93°   Visibility: 6mi
Dew Point: 73°   Wind: 16mph
Humidity: 66%   Direction: 60°ENE
Pressure: 29.83"   Gusts: NA
Location:  3.76°S, 40.82°W
Report Text: SBPB 232000Z 06014KT CAVOK 30/23 Q1010
Loading
Personal Weather Stations






























Interactive Weather Map New forecast layout! Learn more

10-Day Weather Forecast

Advertisements
Track Severe Weather on mobile